sensor_id;sensor_type;location;lat;lon;timestamp;pressure;altitude;pressure_sealevel;temperature;humidity
57412;BME280;43247;52.828;-8.980;2023-02-14T00:00:54;102185.73;;;9.43;82.80
57412;BME280;43247;52.828;-8.980;2023-02-14T00:01:55;102181.43;;;9.47;82.74
57412;BME280;43247;52.828;-8.980;2023-02-14T00:02:56;102185.45;;;9.51;82.62
57412;BME280;43247;52.828;-8.980;2023-02-14T00:03:56;102179.95;;;9.52;82.58
57412;BME280;43247;52.828;-8.980;2023-02-14T00:04:57;102185.55;;;9.53;82.54
57412;BME280;43247;52.828;-8.980;2023-02-14T00:06:04;102185.61;;;9.53;82.53
57412;BME280;43247;52.828;-8.980;2023-02-14T00:06:58;102185.28;;;9.52;82.55
57412;BME280;43247;52.828;-8.980;2023-02-14T00:07:58;102185.04;;;9.51;82.64
57412;BME280;43247;52.828;-8.980;2023-02-14T00:08:59;102185.26;;;9.51;82.67
57412;BME280;43247;52.828;-8.980;2023-02-14T00:09:59;102187.42;;;9.47;82.80
57412;BME280;43247;52.828;-8.980;2023-02-14T00:10:59;102184.49;;;9.47;82.84
57412;BME280;43247;52.828;-8.980;2023-02-14T00:12:00;102181.07;;;9.46;83.08
57412;BME280;43247;52.828;-8.980;2023-02-14T00:13:00;102184.26;;;9.47;83.04
57412;BME280;43247;52.828;-8.980;2023-02-14T00:14:01;102177.45;;;9.46;83.08
57412;BME280;43247;52.828;-8.980;2023-02-14T00:15:02;102177.67;;;9.48;83.08
57412;BME280;43247;52.828;-8.980;2023-02-14T00:16:02;102182.08;;;9.50;83.03
57412;BME280;43247;52.828;-8.980;2023-02-14T00:17:03;102187.31;;;9.49;83.03
57412;BME280;43247;52.828;-8.980;2023-02-14T00:18:03;102181.13;;;9.49;83.00
57412;BME280;43247;52.828;-8.980;2023-02-14T00:19:04;102184.41;;;9.49;83.05
57412;BME280;43247;52.828;-8.980;2023-02-14T00:20:06;102179.87;;;9.48;83.06
57412;BME280;43247;52.828;-8.980;2023-02-14T00:21:05;102176.49;;;9.49;83.09
57412;BME280;43247;52.828;-8.980;2023-02-14T00:22:05;102175.71;;;9.48;83.15
57412;BME280;43247;52.828;-8.980;2023-02-14T00:23:05;102177.26;;;9.49;83.12
57412;BME280;43247;52.828;-8.980;2023-02-14T00:24:08;102172.98;;;9.50;83.09
57412;BME280;43247;52.828;-8.980;2023-02-14T00:25:07;102169.26;;;9.50;83.08
57412;BME280;43247;52.828;-8.980;2023-02-14T00:26:12;102170.12;;;9.46;83.18
57412;BME280;43247;52.828;-8.980;2023-02-14T00:27:07;102169.48;;;9.48;83.18
57412;BME280;43247;52.828;-8.980;2023-02-14T00:28:08;102172.67;;;9.49;83.20
57412;BME280;43247;52.828;-8.980;2023-02-14T00:29:10;102168.27;;;9.51;83.09
57412;BME280;43247;52.828;-8.980;2023-02-14T00:30:11;102159.17;;;9.52;83.07
57412;BME280;43247;52.828;-8.980;2023-02-14T00:31:09;102162.07;;;9.51;83.08
57412;BME280;43247;52.828;-8.980;2023-02-14T00:32:09;102159.49;;;9.52;83.00
57412;BME280;43247;52.828;-8.980;2023-02-14T00:33:10;102155.26;;;9.53;83.02
57412;BME280;43247;52.828;-8.980;2023-02-14T00:34:11;102161.91;;;9.53;83.10
57412;BME280;43247;52.828;-8.980;2023-02-14T00:35:11;102157.19;;;9.53;83.12
57412;BME280;43247;52.828;-8.980;2023-02-14T00:36:12;102161.19;;;9.54;83.09
57412;BME280;43247;52.828;-8.980;2023-02-14T00:37:12;102161.18;;;9.54;83.06
57412;BME280;43247;52.828;-8.980;2023-02-14T00:38:12;102159.72;;;9.54;83.09
57412;BME280;43247;52.828;-8.980;2023-02-14T00:39:14;102152.49;;;9.54;83.12
57412;BME280;43247;52.828;-8.980;2023-02-14T00:40:13;102146.76;;;9.53;83.16
57412;BME280;43247;52.828;-8.980;2023-02-14T00:41:13;102139.18;;;9.55;83.14
57412;BME280;43247;52.828;-8.980;2023-02-14T00:42:13;102141.41;;;9.57;83.16
57412;BME280;43247;52.828;-8.980;2023-02-14T00:43:14;102139.45;;;9.58;83.09
57412;BME280;43247;52.828;-8.980;2023-02-14T00:44:14;102139.17;;;9.59;83.08
57412;BME280;43247;52.828;-8.980;2023-02-14T00:45:14;102140.76;;;9.58;83.16
57412;BME280;43247;52.828;-8.980;2023-02-14T00:46:16;102141.00;;;9.60;83.11
57412;BME280;43247;52.828;-8.980;2023-02-14T00:47:15;102134.61;;;9.62;83.10
57412;BME280;43247;52.828;-8.980;2023-02-14T00:48:15;102136.51;;;9.62;83.11
57412;BME280;43247;52.828;-8.980;2023-02-14T00:49:15;102136.99;;;9.62;83.12
57412;BME280;43247;52.828;-8.980;2023-02-14T00:50:15;102136.26;;;9.61;83.17
57412;BME280;43247;52.828;-8.980;2023-02-14T00:51:16;102134.29;;;9.62;83.18
57412;BME280;43247;52.828;-8.980;2023-02-14T00:52:16;102137.75;;;9.60;83.29
57412;BME280;43247;52.828;-8.980;2023-02-14T00:53:16;102140.47;;;9.59;83.30
57412;BME280;43247;52.828;-8.980;2023-02-14T00:54:17;102136.05;;;9.61;83.29
57412;BME280;43247;52.828;-8.980;2023-02-14T00:55:17;102135.91;;;9.61;83.38
57412;BME280;43247;52.828;-8.980;2023-02-14T00:56:18;102135.05;;;9.61;83.41
57412;BME280;43247;52.828;-8.980;2023-02-14T00:57:18;102133.85;;;9.60;83.48
57412;BME280;43247;52.828;-8.980;2023-02-14T00:58:19;102134.59;;;9.59;83.51
57412;BME280;43247;52.828;-8.980;2023-02-14T00:59:20;102127.75;;;9.58;83.57
57412;BME280;43247;52.828;-8.980;2023-02-14T01:00:21;102132.91;;;9.59;83.58
57412;BME280;43247;52.828;-8.980;2023-02-14T01:01:20;102128.47;;;9.59;83.62
57412;BME280;43247;52.828;-8.980;2023-02-14T01:02:21;102129.83;;;9.62;83.59
57412;BME280;43247;52.828;-8.980;2023-02-14T01:03:22;102122.51;;;9.61;83.63
57412;BME280;43247;52.828;-8.980;2023-02-14T01:04:22;102128.40;;;9.64;83.58
57412;BME280;43247;52.828;-8.980;2023-02-14T01:05:22;102122.60;;;9.64;83.55
57412;BME280;43247;52.828;-8.980;2023-02-14T01:06:23;102127.42;;;9.64;83.58
57412;BME280;43247;52.828;-8.980;2023-02-14T01:07:23;102126.64;;;9.65;83.56
57412;BME280;43247;52.828;-8.980;2023-02-14T01:08:24;102120.72;;;9.64;83.58
57412;BME280;43247;52.828;-8.980;2023-02-14T01:09:24;102119.21;;;9.66;83.62
57412;BME280;43247;52.828;-8.980;2023-02-14T01:10:25;102115.77;;;9.70;83.52
57412;BME280;43247;52.828;-8.980;2023-02-14T01:11:25;102104.91;;;9.70;83.49
57412;BME280;43247;52.828;-8.980;2023-02-14T01:12:26;102102.64;;;9.71;83.56
57412;BME280;43247;52.828;-8.980;2023-02-14T01:13:26;102095.68;;;9.73;83.48
57412;BME280;43247;52.828;-8.980;2023-02-14T01:14:27;102094.81;;;9.73;83.57
57412;BME280;43247;52.828;-8.980;2023-02-14T01:15:27;102095.20;;;9.74;83.53
57412;BME280;43247;52.828;-8.980;2023-02-14T01:16:28;102082.07;;;9.77;83.46
57412;BME280;43247;52.828;-8.980;2023-02-14T01:17:28;102090.75;;;9.78;83.46
57412;BME280;43247;52.828;-8.980;2023-02-14T01:18:28;102099.38;;;9.74;83.64
57412;BME280;43247;52.828;-8.980;2023-02-14T01:19:29;102101.71;;;9.74;83.64
57412;BME280;43247;52.828;-8.980;2023-02-14T01:20:30;102096.39;;;9.75;83.66
57412;BME280;43247;52.828;-8.980;2023-02-14T01:21:32;102098.10;;;9.74;83.69
57412;BME280;43247;52.828;-8.980;2023-02-14T01:22:34;102099.17;;;9.72;83.73
57412;BME280;43247;52.828;-8.980;2023-02-14T01:23:31;102098.80;;;9.73;83.75
57412;BME280;43247;52.828;-8.980;2023-02-14T01:24:31;102088.32;;;9.72;83.77
57412;BME280;43247;52.828;-8.980;2023-02-14T01:25:32;102095.70;;;9.72;83.79
57412;BME280;43247;52.828;-8.980;2023-02-14T01:26:33;102097.69;;;9.71;83.87
57412;BME280;43247;52.828;-8.980;2023-02-14T01:27:32;102096.06;;;9.71;83.91
57412;BME280;43247;52.828;-8.980;2023-02-14T01:28:33;102098.93;;;9.69;83.99
57412;BME280;43247;52.828;-8.980;2023-02-14T01:29:33;102098.11;;;9.71;83.97
57412;BME280;43247;52.828;-8.980;2023-02-14T01:30:34;102096.63;;;9.71;84.01
57412;BME280;43247;52.828;-8.980;2023-02-14T01:31:35;102095.41;;;9.72;83.97
57412;BME280;43247;52.828;-8.980;2023-02-14T01:32:34;102094.45;;;9.73;83.93
57412;BME280;43247;52.828;-8.980;2023-02-14T01:33:35;102094.07;;;9.71;84.03
57412;BME280;43247;52.828;-8.980;2023-02-14T01:34:35;102092.88;;;9.71;84.01
57412;BME280;43247;52.828;-8.980;2023-02-14T01:35:36;102092.50;;;9.71;84.04
57412;BME280;43247;52.828;-8.980;2023-02-14T01:36:37;102102.64;;;9.75;83.94
57412;BME280;43247;52.828;-8.980;2023-02-14T01:37:36;102096.11;;;9.75;83.97
57412;BME280;43247;52.828;-8.980;2023-02-14T01:38:36;102101.63;;;9.75;83.96
57412;BME280;43247;52.828;-8.980;2023-02-14T01:39:36;102099.16;;;9.74;83.99
57412;BME280;43247;52.828;-8.980;2023-02-14T01:40:41;102102.31;;;9.76;83.94
57412;BME280;43247;52.828;-8.980;2023-02-14T01:41:38;102100.68;;;9.76;84.00
57412;BME280;43247;52.828;-8.980;2023-02-14T01:42:37;102099.28;;;9.75;84.02
57412;BME280;43247;52.828;-8.980;2023-02-14T01:45:39;102096.39;;;9.74;84.04
57412;BME280;43247;52.828;-8.980;2023-02-14T01:46:42;102092.39;;;9.74;84.07
57412;BME280;43247;52.828;-8.980;2023-02-14T01:47:42;102093.03;;;9.73;84.13
57412;BME280;43247;52.828;-8.980;2023-02-14T01:48:40;102094.67;;;9.71;84.15
57412;BME280;43247;52.828;-8.980;2023-02-14T01:49:44;102093.84;;;9.72;84.14
57412;BME280;43247;52.828;-8.980;2023-02-14T01:50:42;102100.94;;;9.73;84.11
57412;BME280;43247;52.828;-8.980;2023-02-14T01:51:46;102100.28;;;9.72;84.19
57412;BME280;43247;52.828;-8.980;2023-02-14T01:52:44;102100.36;;;9.73;84.19
57412;BME280;43247;52.828;-8.980;2023-02-14T01:53:42;102091.89;;;9.73;84.17
57412;BME280;43247;52.828;-8.980;2023-02-14T01:54:48;102092.33;;;9.73;84.19
57412;BME280;43247;52.828;-8.980;2023-02-14T01:55:46;102094.00;;;9.72;84.24
57412;BME280;43247;52.828;-8.980;2023-02-14T01:56:49;102090.31;;;9.72;84.27
57412;BME280;43247;52.828;-8.980;2023-02-14T01:57:48;102084.02;;;9.71;84.29
57412;BME280;43247;52.828;-8.980;2023-02-14T01:58:45;102091.85;;;9.73;84.25
57412;BME280;43247;52.828;-8.980;2023-02-14T01:59:50;102089.94;;;9.75;84.21
57412;BME280;43247;52.828;-8.980;2023-02-14T02:00:46;102091.79;;;9.75;84.19
57412;BME280;43247;52.828;-8.980;2023-02-14T02:01:48;102091.54;;;9.76;84.13
57412;BME280;43247;52.828;-8.980;2023-02-14T02:02:47;102092.29;;;9.76;84.17
57412;BME280;43247;52.828;-8.980;2023-02-14T02:03:51;102092.67;;;9.76;84.20
57412;BME280;43247;52.828;-8.980;2023-02-14T02:04:50;102089.43;;;9.77;84.18
57412;BME280;43247;52.828;-8.980;2023-02-14T02:05:52;102088.32;;;9.77;84.21
57412;BME280;43247;52.828;-8.980;2023-02-14T02:06:52;102087.65;;;9.78;84.18
57412;BME280;43247;52.828;-8.980;2023-02-14T02:07:50;102088.76;;;9.77;84.20
57412;BME280;43247;52.828;-8.980;2023-02-14T02:08:55;102082.99;;;9.77;84.07
57412;BME280;43247;52.828;-8.980;2023-02-14T02:09:53;102076.44;;;9.76;84.14
57412;BME280;43247;52.828;-8.980;2023-02-14T02:10:50;102072.61;;;9.77;84.14
57412;BME280;43247;52.828;-8.980;2023-02-14T02:11:50;102078.02;;;9.77;84.19
57412;BME280;43247;52.828;-8.980;2023-02-14T02:12:52;102080.24;;;9.75;84.31
57412;BME280;43247;52.828;-8.980;2023-02-14T02:13:51;102085.48;;;9.76;84.24
57412;BME280;43247;52.828;-8.980;2023-02-14T02:14:54;102083.92;;;9.76;84.31
57412;BME280;43247;52.828;-8.980;2023-02-14T02:16:03;102080.50;;;9.74;84.36
57412;BME280;43247;52.828;-8.980;2023-02-14T02:17:05;102076.71;;;9.73;84.40
57412;BME280;43247;52.828;-8.980;2023-02-14T02:17:59;102077.38;;;9.73;84.51
57412;BME280;43247;52.828;-8.980;2023-02-14T02:19:06;102083.76;;;9.74;84.47
57412;BME280;43247;52.828;-8.980;2023-02-14T02:20:04;102079.74;;;9.74;84.46
57412;BME280;43247;52.828;-8.980;2023-02-14T02:21:05;102075.26;;;9.76;84.47
57412;BME280;43247;52.828;-8.980;2023-02-14T02:24:58;102077.55;;;9.75;84.59
57412;BME280;43247;52.828;-8.980;2023-02-14T02:26:16;102069.48;;;9.75;84.62
57412;BME280;43247;52.828;-8.980;2023-02-14T02:27:10;102074.91;;;9.75;84.60
57412;BME280;43247;52.828;-8.980;2023-02-14T02:31:10;102073.02;;;9.77;84.64
57412;BME280;43247;52.828;-8.980;2023-02-14T02:33:11;102061.42;;;9.79;84.65
57412;BME280;43247;52.828;-8.980;2023-02-14T02:34:12;102066.16;;;9.80;84.62
57412;BME280;43247;52.828;-8.980;2023-02-14T02:36:08;102060.65;;;9.83;84.66
57412;BME280;43247;52.828;-8.980;2023-02-14T02:37:11;102051.63;;;9.84;84.68
57412;BME280;43247;52.828;-8.980;2023-02-14T02:38:11;102047.11;;;9.84;84.63
57412;BME280;43247;52.828;-8.980;2023-02-14T02:39:09;102047.28;;;9.86;84.63
57412;BME280;43247;52.828;-8.980;2023-02-14T02:40:09;102050.08;;;9.86;84.61
57412;BME280;43247;52.828;-8.980;2023-02-14T02:41:07;102043.74;;;9.86;84.62
57412;BME280;43247;52.828;-8.980;2023-02-14T02:42:07;102046.08;;;9.87;84.63
57412;BME280;43247;52.828;-8.980;2023-02-14T02:43:14;102043.76;;;9.86;84.76
57412;BME280;43247;52.828;-8.980;2023-02-14T02:44:12;102048.22;;;9.84;84.79
57412;BME280;43247;52.828;-8.980;2023-02-14T02:45:10;102048.50;;;9.83;84.82
57412;BME280;43247;52.828;-8.980;2023-02-14T02:46:07;102042.07;;;9.85;84.65
57412;BME280;43247;52.828;-8.980;2023-02-14T02:47:07;102049.38;;;9.84;84.92
57412;BME280;43247;52.828;-8.980;2023-02-14T02:48:05;102045.51;;;9.80;85.22
57412;BME280;43247;52.828;-8.980;2023-02-14T02:49:11;102039.73;;;9.77;85.43
57412;BME280;43247;52.828;-8.980;2023-02-14T02:50:13;102038.54;;;9.76;85.44
57412;BME280;43247;52.828;-8.980;2023-02-14T02:51:08;102031.59;;;9.76;85.43
57412;BME280;43247;52.828;-8.980;2023-02-14T02:52:09;102035.77;;;9.77;85.45
57412;BME280;43247;52.828;-8.980;2023-02-14T02:53:13;102037.81;;;9.81;85.34
57412;BME280;43247;52.828;-8.980;2023-02-14T02:54:12;102038.24;;;9.85;85.29
57412;BME280;43247;52.828;-8.980;2023-02-14T02:55:10;102038.20;;;9.85;85.22
57412;BME280;43247;52.828;-8.980;2023-02-14T02:56:10;102039.27;;;9.87;85.21
57412;BME280;43247;52.828;-8.980;2023-02-14T02:57:13;102035.73;;;9.86;85.32
57412;BME280;43247;52.828;-8.980;2023-02-14T02:58:07;102031.36;;;9.88;85.25
57412;BME280;43247;52.828;-8.980;2023-02-14T02:59:10;102028.02;;;9.89;85.23
57412;BME280;43247;52.828;-8.980;2023-02-14T03:00:11;102028.66;;;9.90;85.16
57412;BME280;43247;52.828;-8.980;2023-02-14T03:01:11;102028.59;;;9.91;85.13
57412;BME280;43247;52.828;-8.980;2023-02-14T03:02:13;102030.14;;;9.91;85.13
57412;BME280;43247;52.828;-8.980;2023-02-14T03:03:11;102026.80;;;9.90;85.15
57412;BME280;43247;52.828;-8.980;2023-02-14T03:04:11;102026.95;;;9.91;85.21
57412;BME280;43247;52.828;-8.980;2023-02-14T03:05:11;102021.43;;;9.92;85.17
57412;BME280;43247;52.828;-8.980;2023-02-14T03:06:11;102020.39;;;9.93;85.24
57412;BME280;43247;52.828;-8.980;2023-02-14T03:07:12;102021.78;;;9.95;85.24
57412;BME280;43247;52.828;-8.980;2023-02-14T03:08:12;102016.89;;;9.95;85.36
57412;BME280;43247;52.828;-8.980;2023-02-14T03:10:15;102022.44;;;9.95;85.36
57412;BME280;43247;52.828;-8.980;2023-02-14T03:11:13;102017.98;;;9.97;85.34
57412;BME280;43247;52.828;-8.980;2023-02-14T03:12:34;102016.31;;;9.97;85.34
57412;BME280;43247;52.828;-8.980;2023-02-14T03:13:24;102007.94;;;9.98;85.31
57412;BME280;43247;52.828;-8.980;2023-02-14T03:14:19;102008.27;;;9.97;85.44
57412;BME280;43247;52.828;-8.980;2023-02-14T03:15:21;102008.90;;;9.97;85.53
57412;BME280;43247;52.828;-8.980;2023-02-14T03:16:23;102010.60;;;9.98;85.34
57412;BME280;43247;52.828;-8.980;2023-02-14T03:17:21;102004.71;;;9.96;85.36
57412;BME280;43247;52.828;-8.980;2023-02-14T03:18:28;102002.11;;;9.96;85.47
57412;BME280;43247;52.828;-8.980;2023-02-14T03:19:25;102001.36;;;9.96;85.44
57412;BME280;43247;52.828;-8.980;2023-02-14T03:20:21;102001.05;;;9.97;85.41
57412;BME280;43247;52.828;-8.980;2023-02-14T03:21:25;102002.79;;;9.97;85.47
57412;BME280;43247;52.828;-8.980;2023-02-14T03:22:26;101999.63;;;9.98;85.46
57412;BME280;43247;52.828;-8.980;2023-02-14T03:23:20;101996.41;;;10.02;85.45
57412;BME280;43247;52.828;-8.980;2023-02-14T03:24:24;101997.85;;;10.01;85.52
57412;BME280;43247;52.828;-8.980;2023-02-14T03:25:30;102003.01;;;9.99;85.61
57412;BME280;43247;52.828;-8.980;2023-02-14T03:26:26;101998.86;;;10.01;85.65
57412;BME280;43247;52.828;-8.980;2023-02-14T03:27:25;101995.12;;;10.03;85.55
57412;BME280;43247;52.828;-8.980;2023-02-14T03:28:27;101997.47;;;10.01;85.63
57412;BME280;43247;52.828;-8.980;2023-02-14T03:29:25;101993.03;;;10.00;85.65
57412;BME280;43247;52.828;-8.980;2023-02-14T03:30:29;101996.10;;;10.02;85.67
57412;BME280;43247;52.828;-8.980;2023-02-14T03:31:27;101990.89;;;10.02;85.65
57412;BME280;43247;52.828;-8.980;2023-02-14T03:32:30;101992.05;;;10.02;85.66
57412;BME280;43247;52.828;-8.980;2023-02-14T03:33:28;101996.35;;;10.03;85.68
57412;BME280;43247;52.828;-8.980;2023-02-14T03:34:28;101998.19;;;10.02;85.75
57412;BME280;43247;52.828;-8.980;2023-02-14T03:35:24;101994.98;;;10.06;85.64
57412;BME280;43247;52.828;-8.980;2023-02-14T03:36:26;101992.64;;;10.06;85.66
57412;BME280;43247;52.828;-8.980;2023-02-14T03:37:27;101993.84;;;10.07;85.78
57412;BME280;43247;52.828;-8.980;2023-02-14T03:38:28;101994.80;;;10.07;85.79
57412;BME280;43247;52.828;-8.980;2023-02-14T03:39:26;101993.79;;;10.08;85.82
57412;BME280;43247;52.828;-8.980;2023-02-14T03:40:27;101993.59;;;10.08;85.85
57412;BME280;43247;52.828;-8.980;2023-02-14T03:41:28;101992.57;;;10.10;85.75
57412;BME280;43247;52.828;-8.980;2023-02-14T03:42:29;101989.83;;;10.11;85.72
57412;BME280;43247;52.828;-8.980;2023-02-14T03:43:28;101995.93;;;10.10;85.78
57412;BME280;43247;52.828;-8.980;2023-02-14T03:44:28;101987.12;;;10.12;85.84
57412;BME280;43247;52.828;-8.980;2023-02-14T03:45:32;101986.59;;;10.11;85.95
57412;BME280;43247;52.828;-8.980;2023-02-14T03:46:29;101988.04;;;10.13;85.84
57412;BME280;43247;52.828;-8.980;2023-02-14T03:47:30;101988.38;;;10.12;85.90
57412;BME280;43247;52.828;-8.980;2023-02-14T03:48:28;101985.69;;;10.10;86.04
57412;BME280;43247;52.828;-8.980;2023-02-14T03:49:30;101984.52;;;10.10;86.06
57412;BME280;43247;52.828;-8.980;2023-02-14T03:50:30;101986.25;;;10.11;86.06
57412;BME280;43247;52.828;-8.980;2023-02-14T03:51:30;101986.97;;;10.13;86.00
57412;BME280;43247;52.828;-8.980;2023-02-14T03:52:30;101985.99;;;10.13;86.11
57412;BME280;43247;52.828;-8.980;2023-02-14T03:53:33;101983.45;;;10.13;86.09
57412;BME280;43247;52.828;-8.980;2023-02-14T03:54:31;101984.28;;;10.14;86.10
57412;BME280;43247;52.828;-8.980;2023-02-14T03:55:34;101981.13;;;10.14;86.10
57412;BME280;43247;52.828;-8.980;2023-02-14T03:56:34;101981.83;;;10.16;86.07
57412;BME280;43247;52.828;-8.980;2023-02-14T03:57:36;101978.93;;;10.20;86.02
57412;BME280;43247;52.828;-8.980;2023-02-14T03:58:34;101980.29;;;10.22;85.93
57412;BME280;43247;52.828;-8.980;2023-02-14T03:59:31;101979.94;;;10.23;85.99
57412;BME280;43247;52.828;-8.980;2023-02-14T04:00:35;101978.84;;;10.24;86.00
57412;BME280;43247;52.828;-8.980;2023-02-14T04:01:35;101976.08;;;10.23;85.88
57412;BME280;43247;52.828;-8.980;2023-02-14T04:02:35;101972.51;;;10.23;86.12
57412;BME280;43247;52.828;-8.980;2023-02-14T04:03:34;101974.08;;;10.21;86.31
57412;BME280;43247;52.828;-8.980;2023-02-14T04:04:36;101969.37;;;10.20;86.38
57412;BME280;43247;52.828;-8.980;2023-02-14T04:05:34;101972.10;;;10.18;86.53
57412;BME280;43247;52.828;-8.980;2023-02-14T04:06:34;101969.52;;;10.18;86.49
57412;BME280;43247;52.828;-8.980;2023-02-14T04:07:44;101969.02;;;10.19;86.50
57412;BME280;43247;52.828;-8.980;2023-02-14T04:08:35;101968.47;;;10.19;86.58
57412;BME280;43247;52.828;-8.980;2023-02-14T04:09:36;101969.52;;;10.20;86.52
57412;BME280;43247;52.828;-8.980;2023-02-14T04:10:36;101969.47;;;10.19;86.60
57412;BME280;43247;52.828;-8.980;2023-02-14T04:11:36;101970.40;;;10.20;86.61
57412;BME280;43247;52.828;-8.980;2023-02-14T04:12:37;101968.50;;;10.22;86.54
57412;BME280;43247;52.828;-8.980;2023-02-14T04:13:38;101966.25;;;10.24;86.47
57412;BME280;43247;52.828;-8.980;2023-02-14T04:14:38;101965.43;;;10.23;86.55
57412;BME280;43247;52.828;-8.980;2023-02-14T04:15:38;101972.38;;;10.24;86.60
57412;BME280;43247;52.828;-8.980;2023-02-14T04:16:39;101971.31;;;10.22;86.63
57412;BME280;43247;52.828;-8.980;2023-02-14T04:17:39;101970.87;;;10.21;86.69
57412;BME280;43247;52.828;-8.980;2023-02-14T04:18:40;101974.81;;;10.22;86.69
57412;BME280;43247;52.828;-8.980;2023-02-14T04:19:40;101972.40;;;10.22;86.74
57412;BME280;43247;52.828;-8.980;2023-02-14T04:20:40;101971.94;;;10.25;86.62
57412;BME280;43247;52.828;-8.980;2023-02-14T04:21:40;101969.85;;;10.28;86.59
57412;BME280;43247;52.828;-8.980;2023-02-14T04:22:40;101971.10;;;10.26;86.71
57412;BME280;43247;52.828;-8.980;2023-02-14T04:23:41;101971.95;;;10.28;86.71
57412;BME280;43247;52.828;-8.980;2023-02-14T04:24:41;101970.81;;;10.27;86.73
57412;BME280;43247;52.828;-8.980;2023-02-14T04:25:42;101968.40;;;10.27;86.74
57412;BME280;43247;52.828;-8.980;2023-02-14T04:26:42;101966.32;;;10.27;86.77
57412;BME280;43247;52.828;-8.980;2023-02-14T04:27:43;101961.89;;;10.27;86.79
57412;BME280;43247;52.828;-8.980;2023-02-14T04:28:44;101963.56;;;10.29;86.73
57412;BME280;43247;52.828;-8.980;2023-02-14T04:29:47;101959.88;;;10.30;86.68
57412;BME280;43247;52.828;-8.980;2023-02-14T04:30:45;101960.36;;;10.29;86.80
57412;BME280;43247;52.828;-8.980;2023-02-14T04:31:45;101965.67;;;10.32;86.69
57412;BME280;43247;52.828;-8.980;2023-02-14T04:32:45;101960.58;;;10.32;86.64
57412;BME280;43247;52.828;-8.980;2023-02-14T04:33:46;101962.90;;;10.34;86.49
57412;BME280;43247;52.828;-8.980;2023-02-14T04:34:46;101964.07;;;10.36;86.49
57412;BME280;43247;52.828;-8.980;2023-02-14T04:35:47;101966.66;;;10.36;86.36
57412;BME280;43247;52.828;-8.980;2023-02-14T04:36:47;101969.27;;;10.35;86.33
57412;BME280;43247;52.828;-8.980;2023-02-14T04:37:47;101969.02;;;10.35;86.38
57412;BME280;43247;52.828;-8.980;2023-02-14T04:38:48;101965.03;;;10.34;86.48
57412;BME280;43247;52.828;-8.980;2023-02-14T04:39:48;101963.85;;;10.33;86.49
57412;BME280;43247;52.828;-8.980;2023-02-14T04:40:49;101965.08;;;10.34;86.55
57412;BME280;43247;52.828;-8.980;2023-02-14T04:41:49;101966.07;;;10.33;86.60
57412;BME280;43247;52.828;-8.980;2023-02-14T04:42:50;101967.30;;;10.33;86.66
57412;BME280;43247;52.828;-8.980;2023-02-14T04:43:50;101967.18;;;10.33;86.68
57412;BME280;43247;52.828;-8.980;2023-02-14T04:44:50;101965.64;;;10.33;86.73
57412;BME280;43247;52.828;-8.980;2023-02-14T04:45:50;101963.62;;;10.32;86.81
57412;BME280;43247;52.828;-8.980;2023-02-14T04:46:50;101967.69;;;10.32;86.84
57412;BME280;43247;52.828;-8.980;2023-02-14T04:47:51;101966.91;;;10.34;86.77
57412;BME280;43247;52.828;-8.980;2023-02-14T04:48:51;101964.60;;;10.32;86.97
57412;BME280;43247;52.828;-8.980;2023-02-14T04:49:51;101964.68;;;10.33;86.88
57412;BME280;43247;52.828;-8.980;2023-02-14T04:50:52;101966.48;;;10.35;86.78
57412;BME280;43247;52.828;-8.980;2023-02-14T04:51:52;101966.48;;;10.35;86.75
57412;BME280;43247;52.828;-8.980;2023-02-14T04:52:53;101963.38;;;10.38;86.66
57412;BME280;43247;52.828;-8.980;2023-02-14T04:53:53;101966.82;;;10.37;86.82
57412;BME280;43247;52.828;-8.980;2023-02-14T04:54:53;101968.29;;;10.37;86.89
57412;BME280;43247;52.828;-8.980;2023-02-14T04:55:54;101965.93;;;10.37;86.92
57412;BME280;43247;52.828;-8.980;2023-02-14T04:56:54;101961.98;;;10.37;87.00
57412;BME280;43247;52.828;-8.980;2023-02-14T04:57:54;101962.84;;;10.38;87.05
57412;BME280;43247;52.828;-8.980;2023-02-14T04:58:55;101961.10;;;10.36;87.14
57412;BME280;43247;52.828;-8.980;2023-02-14T04:59:55;101959.67;;;10.39;87.09
57412;BME280;43247;52.828;-8.980;2023-02-14T05:00:56;101959.48;;;10.39;87.12
57412;BME280;43247;52.828;-8.980;2023-02-14T05:01:57;101960.14;;;10.40;87.16
57412;BME280;43247;52.828;-8.980;2023-02-14T05:02:57;101957.37;;;10.41;87.17
57412;BME280;43247;52.828;-8.980;2023-02-14T05:03:58;101959.77;;;10.41;87.21
57412;BME280;43247;52.828;-8.980;2023-02-14T05:04:58;101960.41;;;10.42;87.19
57412;BME280;43247;52.828;-8.980;2023-02-14T05:05:58;101961.02;;;10.41;87.27
57412;BME280;43247;52.828;-8.980;2023-02-14T05:06:59;101963.64;;;10.42;87.30
57412;BME280;43247;52.828;-8.980;2023-02-14T05:08:00;101963.40;;;10.44;87.18
57412;BME280;43247;52.828;-8.980;2023-02-14T05:09:01;101963.25;;;10.43;87.34
57412;BME280;43247;52.828;-8.980;2023-02-14T05:10:01;101961.70;;;10.43;87.23
57412;BME280;43247;52.828;-8.980;2023-02-14T05:11:01;101962.58;;;10.46;87.14
57412;BME280;43247;52.828;-8.980;2023-02-14T05:12:02;101966.01;;;10.46;87.15
57412;BME280;43247;52.828;-8.980;2023-02-14T05:13:02;101967.57;;;10.46;87.16
57412;BME280;43247;52.828;-8.980;2023-02-14T05:14:03;101966.44;;;10.46;87.20
57412;BME280;43247;52.828;-8.980;2023-02-14T05:15:03;101965.57;;;10.46;87.22
57412;BME280;43247;52.828;-8.980;2023-02-14T05:16:04;101968.08;;;10.46;87.30
57412;BME280;43247;52.828;-8.980;2023-02-14T05:17:04;101970.41;;;10.46;87.44
57412;BME280;43247;52.828;-8.980;2023-02-14T05:18:04;101969.63;;;10.45;87.51
57412;BME280;43247;52.828;-8.980;2023-02-14T05:19:05;101966.54;;;10.45;87.55
57412;BME280;43247;52.828;-8.980;2023-02-14T05:20:07;101966.24;;;10.44;87.57
57412;BME280;43247;52.828;-8.980;2023-02-14T05:21:05;101968.44;;;10.44;87.60
57412;BME280;43247;52.828;-8.980;2023-02-14T05:22:06;101969.37;;;10.44;87.67
57412;BME280;43247;52.828;-8.980;2023-02-14T05:23:06;101972.24;;;10.44;87.68
57412;BME280;43247;52.828;-8.980;2023-02-14T05:24:06;101975.61;;;10.44;87.70
57412;BME280;43247;52.828;-8.980;2023-02-14T05:25:07;101973.99;;;10.45;87.69